createdAt,value
2022-12-03T00:02:12.821Z,2.80
2022-12-03T00:04:39.548Z,2.90
2022-12-03T00:07:06.188Z,2.90
2022-12-03T00:09:32.803Z,3.00
2022-12-03T00:11:59.443Z,3.00
2022-12-03T00:14:26.182Z,3.00
2022-12-03T00:16:52.817Z,3.00
2022-12-03T00:19:19.495Z,3.00
2022-12-03T00:21:46.295Z,2.90
2022-12-03T00:24:12.871Z,3.00
2022-12-03T00:26:39.505Z,3.00
2022-12-03T00:29:06.155Z,2.90
2022-12-03T00:31:32.864Z,3.00
2022-12-03T00:33:59.684Z,3.00
2022-12-03T00:36:26.405Z,3.10
2022-12-03T00:38:53.055Z,3.00
2022-12-03T00:41:19.762Z,3.00
2022-12-03T00:43:46.585Z,3.00
2022-12-03T00:46:16.904Z,3.00
2022-12-03T00:48:47.619Z,3.00
2022-12-03T00:51:14.334Z,3.00
2022-12-03T00:53:40.947Z,3.00
2022-12-03T00:56:07.807Z,3.00
2022-12-03T00:58:34.830Z,3.10
2022-12-03T01:01:01.426Z,3.10
2022-12-03T01:03:28.249Z,3.10
2022-12-03T01:05:54.915Z,3.10
2022-12-03T01:08:21.692Z,3.20
2022-12-03T01:10:48.377Z,3.10
2022-12-03T01:13:15.006Z,3.10
2022-12-03T01:15:42.058Z,3.20
2022-12-03T01:18:08.713Z,3.20
2022-12-03T01:20:36.404Z,3.10
2022-12-03T01:23:03.105Z,3.30
2022-12-03T01:25:29.846Z,3.20
2022-12-03T01:27:56.440Z,3.30
2022-12-03T01:30:23.109Z,3.20
2022-12-03T01:32:49.757Z,3.20
2022-12-03T01:35:16.573Z,3.30
2022-12-03T01:37:45.043Z,3.30
2022-12-03T01:40:13.508Z,3.30
2022-12-03T01:42:41.246Z,3.40
2022-12-03T01:45:11.487Z,3.30
2022-12-03T01:47:38.252Z,3.30
2022-12-03T01:50:14.131Z,3.30
2022-12-03T01:52:40.792Z,3.30
2022-12-03T01:55:11.496Z,3.40
2022-12-03T01:57:38.096Z,3.40
2022-12-03T02:00:05.100Z,3.40
2022-12-03T02:02:32.169Z,3.40
2022-12-03T02:04:59.505Z,3.40
2022-12-03T02:07:26.248Z,3.40
2022-12-03T02:09:53.655Z,3.40
2022-12-03T02:12:22.591Z,3.40
2022-12-03T02:14:49.628Z,3.40
2022-12-03T02:17:16.635Z,3.40
2022-12-03T02:19:43.291Z,3.40
2022-12-03T02:22:23.104Z,3.40
2022-12-03T02:24:58.943Z,3.40
2022-12-03T02:27:27.867Z,3.40
2022-12-03T02:29:54.538Z,3.40
2022-12-03T02:32:23.465Z,3.30
2022-12-03T02:34:50.775Z,3.30
2022-12-03T02:37:20.150Z,3.30
2022-12-03T02:39:48.752Z,3.30
2022-12-03T02:42:34.284Z,3.30
2022-12-03T02:45:10.411Z,3.30
2022-12-03T02:47:41.069Z,3.30
2022-12-03T02:50:08.383Z,3.30
2022-12-03T02:52:35.251Z,3.30
2022-12-03T02:55:02.807Z,3.30
2022-12-03T02:57:29.591Z,3.30
2022-12-03T02:59:56.342Z,3.40
2022-12-03T03:02:23.217Z,3.30
2022-12-03T03:04:50.308Z,3.30
2022-12-03T03:07:17.166Z,3.30
2022-12-03T03:09:44.154Z,3.40
2022-12-03T03:12:11.244Z,3.30
2022-12-03T03:14:38.080Z,3.30
2022-12-03T03:17:04.877Z,3.50
2022-12-03T03:19:31.609Z,3.30
2022-12-03T03:21:58.432Z,3.40
2022-12-03T03:24:25.463Z,3.50
2022-12-03T03:26:52.279Z,3.40
2022-12-03T03:29:19.114Z,3.40
2022-12-03T03:31:46.467Z,3.30
2022-12-03T03:34:13.768Z,3.30
2022-12-03T03:36:40.591Z,3.30
2022-12-03T03:39:07.375Z,3.30
2022-12-03T03:41:34.709Z,3.30
2022-12-03T03:44:01.914Z,3.20
2022-12-03T03:46:28.869Z,3.30
2022-12-03T03:48:55.832Z,3.30
2022-12-03T03:51:22.640Z,3.20
2022-12-03T03:53:49.735Z,3.20
2022-12-03T03:56:17.511Z,3.10
2022-12-03T03:58:44.127Z,3.10
2022-12-03T04:01:12.735Z,3.10
2022-12-03T04:03:39.686Z,3.40
2022-12-03T04:06:06.522Z,3.20
2022-12-03T04:08:33.196Z,3.20
2022-12-03T04:11:18.749Z,3.20
2022-12-03T04:13:45.413Z,3.20
2022-12-03T04:16:12.235Z,3.30
2022-12-03T04:18:44.916Z,3.30
2022-12-03T04:21:31.472Z,3.40
2022-12-03T04:23:58.324Z,3.40
2022-12-03T04:26:43.898Z,3.30
2022-12-03T04:29:10.824Z,3.30
2022-12-03T04:31:56.247Z,3.30
2022-12-03T04:34:42.006Z,3.30
2022-12-03T04:37:08.801Z,3.30
2022-12-03T04:39:35.519Z,3.20
2022-12-03T04:42:02.573Z,3.20
2022-12-03T04:44:38.465Z,3.20
2022-12-03T04:47:05.288Z,3.20
2022-12-03T04:49:32.563Z,3.30
2022-12-03T04:51:59.401Z,3.20
2022-12-03T04:54:26.669Z,3.30
2022-12-03T04:56:53.385Z,3.30
2022-12-03T04:59:20.500Z,3.30
2022-12-03T05:01:47.357Z,3.30
2022-12-03T05:04:14.628Z,3.30
2022-12-03T05:06:41.660Z,3.20
2022-12-03T05:09:08.368Z,3.20
2022-12-03T05:11:35.252Z,3.10
2022-12-03T05:14:01.986Z,3.20
2022-12-03T05:16:31.100Z,3.20
2022-12-03T05:18:57.920Z,3.30
2022-12-03T05:21:24.654Z,3.20
2022-12-03T05:23:51.383Z,3.20
2022-12-03T05:26:18.115Z,3.10
2022-12-03T05:28:45.279Z,3.20
2022-12-03T05:31:12.088Z,3.30
2022-12-03T05:33:44.014Z,3.30
2022-12-03T05:36:11.350Z,3.20
2022-12-03T05:38:38.116Z,3.20
2022-12-03T05:41:25.008Z,3.20
2022-12-03T05:43:51.703Z,3.20
2022-12-03T05:46:18.806Z,3.30
2022-12-03T05:48:45.552Z,3.20
2022-12-03T05:51:12.273Z,3.20
2022-12-03T05:53:39.038Z,3.20
2022-12-03T05:56:06.031Z,3.20
2022-12-03T05:58:32.772Z,3.30
2022-12-03T06:00:59.565Z,3.20
2022-12-03T06:03:27.079Z,3.30
2022-12-03T06:05:53.859Z,3.20
2022-12-03T06:08:20.761Z,3.20
2022-12-03T06:10:47.527Z,3.20
2022-12-03T06:13:14.303Z,3.30
2022-12-03T06:15:44.009Z,3.30
2022-12-03T06:18:11.167Z,3.30
2022-12-03T06:20:37.901Z,3.30
2022-12-03T06:23:04.757Z,3.40
2022-12-03T06:25:31.546Z,3.30
2022-12-03T06:27:58.240Z,3.30
2022-12-03T06:30:25.070Z,3.30
2022-12-03T06:32:51.808Z,3.20
2022-12-03T06:35:18.501Z,3.20
2022-12-03T06:37:45.252Z,3.20
2022-12-03T06:40:12.282Z,3.00
2022-12-03T06:42:41.685Z,3.00
2022-12-03T06:45:08.747Z,3.00
2022-12-03T06:47:35.612Z,3.00
2022-12-03T06:50:02.323Z,3.00
2022-12-03T06:52:29.296Z,3.00
2022-12-03T06:54:56.273Z,2.90
2022-12-03T06:57:23.161Z,3.00
2022-12-03T06:59:49.876Z,3.00
2022-12-03T07:02:16.552Z,3.00
2022-12-03T07:04:46.243Z,2.90
2022-12-03T07:07:13.710Z,2.90
2022-12-03T07:09:40.391Z,2.90
2022-12-03T07:12:07.095Z,2.80
2022-12-03T07:14:33.794Z,2.80
2022-12-03T07:17:00.503Z,2.80
2022-12-03T07:19:32.302Z,2.80
2022-12-03T07:21:59.643Z,2.70
2022-12-03T07:24:26.323Z,2.80
2022-12-03T07:26:53.029Z,2.80
2022-12-03T07:29:19.692Z,2.80
2022-12-03T07:31:46.551Z,2.80
2022-12-03T07:34:13.275Z,2.70
2022-12-03T07:36:40.011Z,2.60
2022-12-03T07:39:06.665Z,2.70
2022-12-03T07:41:33.436Z,2.70
2022-12-03T07:44:00.102Z,2.70
2022-12-03T07:46:26.937Z,2.50
2022-12-03T07:48:53.771Z,2.50
2022-12-03T07:51:20.583Z,2.50
2022-12-03T07:53:47.282Z,2.30
2022-12-03T07:56:14.014Z,2.20
2022-12-03T07:58:40.678Z,2.20
2022-12-03T08:01:07.534Z,2.20
2022-12-03T08:03:34.355Z,2.20
2022-12-03T08:06:01.203Z,2.10
2022-12-03T08:08:27.952Z,2.20
2022-12-03T08:10:54.616Z,2.20
2022-12-03T08:13:21.831Z,2.20
2022-12-03T08:15:48.695Z,2.20
2022-12-03T08:18:19.480Z,2.10
2022-12-03T08:20:48.369Z,2.20
2022-12-03T08:23:22.365Z,2.20
2022-12-03T08:25:50.384Z,2.20
2022-12-03T08:28:19.475Z,2.20
2022-12-03T08:31:03.144Z,2.30
2022-12-03T08:33:33.865Z,2.20
2022-12-03T08:36:01.237Z,2.20
2022-12-03T08:38:29.598Z,2.30
2022-12-03T08:40:56.389Z,2.20
2022-12-03T08:43:24.595Z,2.30
2022-12-03T08:45:52.918Z,2.20
2022-12-03T08:48:32.900Z,2.20
2022-12-03T08:51:19.919Z,2.20
2022-12-03T08:53:48.338Z,2.20
2022-12-03T08:56:25.326Z,2.10
2022-12-03T08:58:58.532Z,2.10
2022-12-03T09:01:32.846Z,2.10
2022-12-03T09:04:20.137Z,2.20
2022-12-03T09:06:47.112Z,2.20
2022-12-03T09:09:13.883Z,2.00
2022-12-03T09:11:40.597Z,2.00
2022-12-03T09:14:07.319Z,2.10
2022-12-03T09:16:34.091Z,2.10
2022-12-03T09:19:00.891Z,2.10
2022-12-03T09:21:27.589Z,2.20
2022-12-03T09:23:54.292Z,2.30
2022-12-03T09:26:20.881Z,2.40
2022-12-03T09:28:48.259Z,2.40
2022-12-03T09:31:15.612Z,2.40
2022-12-03T09:33:42.377Z,2.40
2022-12-03T09:36:09.220Z,2.40
2022-12-03T09:38:35.840Z,2.50
2022-12-03T09:41:02.654Z,2.50
2022-12-03T09:43:49.351Z,2.60
2022-12-03T09:46:18.542Z,2.50
2022-12-03T09:48:45.455Z,2.50
2022-12-03T09:51:12.290Z,2.40
2022-12-03T09:53:41.314Z,2.40
2022-12-03T09:56:15.120Z,2.30
2022-12-03T09:58:41.984Z,2.40
2022-12-03T10:01:13.417Z,2.40
2022-12-03T10:03:43.064Z,2.40
2022-12-03T10:06:13.938Z,2.30
2022-12-03T10:08:40.548Z,2.40
2022-12-03T10:11:07.298Z,2.50
2022-12-03T10:13:37.293Z,2.60
2022-12-03T10:16:04.082Z,2.60
2022-12-03T10:18:38.309Z,2.70
2022-12-03T10:21:24.735Z,2.60
2022-12-03T10:24:11.297Z,2.50
2022-12-03T10:26:39.978Z,2.40
2022-12-03T10:29:12.590Z,2.30
2022-12-03T10:31:39.694Z,2.30
2022-12-03T10:34:06.452Z,2.20
2022-12-03T10:36:33.236Z,2.20
2022-12-03T10:39:09.379Z,2.20
2022-12-03T10:41:36.317Z,2.30
2022-12-03T10:44:14.440Z,2.40
2022-12-03T10:46:41.258Z,2.40
2022-12-03T10:49:14.264Z,2.40
2022-12-03T10:51:40.988Z,2.40
2022-12-03T10:54:18.180Z,2.40
2022-12-03T10:56:45.406Z,2.60
2022-12-03T10:59:25.669Z,2.80
2022-12-03T11:01:52.385Z,2.80
2022-12-03T11:04:23.693Z,2.70
2022-12-03T11:06:50.875Z,2.60
2022-12-03T11:09:21.981Z,2.70
2022-12-03T11:11:49.212Z,2.70
2022-12-03T11:14:35.805Z,2.60
2022-12-03T11:17:02.480Z,2.70
2022-12-03T11:19:42.815Z,2.70
2022-12-03T11:22:10.097Z,2.60
2022-12-03T11:24:38.115Z,2.60
2022-12-03T11:27:04.772Z,2.60
2022-12-03T11:29:46.812Z,2.50
2022-12-03T11:32:36.740Z,2.40
2022-12-03T11:35:04.237Z,2.30
2022-12-03T11:37:31.238Z,2.40
2022-12-03T11:39:58.855Z,2.40
2022-12-03T11:42:34.229Z,2.30
2022-12-03T11:45:08.400Z,2.30
2022-12-03T11:47:43.919Z,2.30
2022-12-03T11:50:21.695Z,2.40
2022-12-03T11:52:55.456Z,2.30
2022-12-03T11:55:22.086Z,2.40
2022-12-03T11:57:48.880Z,2.40
2022-12-03T12:00:17.381Z,2.40
2022-12-03T12:02:44.294Z,2.40
2022-12-03T12:05:30.167Z,2.40
2022-12-03T12:07:57.016Z,2.50
2022-12-03T12:10:38.821Z,2.50
2022-12-03T12:13:05.525Z,2.40
2022-12-03T12:15:37.874Z,2.40
2022-12-03T12:18:22.960Z,2.40
2022-12-03T12:20:49.577Z,2.30
2022-12-03T12:23:28.133Z,2.30
2022-12-03T12:26:05.423Z,2.30
2022-12-03T12:28:32.097Z,2.40
2022-12-03T12:30:59.277Z,2.50
2022-12-03T12:33:26.659Z,2.60
2022-12-03T12:35:53.577Z,2.70
2022-12-03T12:38:21.092Z,2.60
2022-12-03T12:40:49.455Z,2.50
2022-12-03T12:43:30.905Z,2.30
2022-12-03T12:46:18.651Z,2.30
2022-12-03T12:48:47.804Z,2.20
2022-12-03T12:51:16.902Z,2.10
2022-12-03T12:53:43.852Z,2.20
2022-12-03T12:56:19.996Z,2.10
2022-12-03T12:58:46.944Z,2.20
2022-12-03T13:01:28.527Z,2.10
2022-12-03T13:03:55.447Z,2.10
2022-12-03T13:06:31.887Z,2.10
2022-12-03T13:09:01.168Z,2.10
2022-12-03T13:11:34.524Z,2.00
2022-12-03T13:14:10.516Z,2.00
2022-12-03T13:16:37.452Z,1.90
2022-12-03T13:19:12.903Z,1.90
2022-12-03T13:21:40.713Z,1.90
2022-12-03T13:24:25.936Z,2.00
2022-12-03T13:26:52.871Z,2.10
2022-12-03T13:29:20.420Z,2.00
2022-12-03T13:31:50.357Z,2.10
2022-12-03T13:34:19.921Z,2.00
2022-12-03T13:36:51.954Z,2.00
2022-12-03T13:39:27.740Z,2.10
2022-12-03T13:42:13.503Z,2.00
2022-12-03T13:44:45.560Z,1.90
2022-12-03T13:47:17.268Z,1.90
2022-12-03T13:49:48.905Z,1.90
2022-12-03T13:52:17.294Z,1.80
2022-12-03T13:54:43.941Z,1.90
2022-12-03T13:57:10.731Z,2.00
2022-12-03T13:59:37.524Z,2.00
2022-12-03T14:02:04.370Z,1.90
2022-12-03T14:04:31.089Z,1.80
2022-12-03T14:06:57.815Z,1.90
2022-12-03T14:09:24.521Z,1.90
2022-12-03T14:12:09.933Z,1.80
2022-12-03T14:14:36.780Z,1.80
2022-12-03T14:17:04.603Z,1.70
2022-12-03T14:19:31.565Z,1.70
2022-12-03T14:21:58.527Z,1.70
2022-12-03T14:24:25.291Z,1.70
2022-12-03T14:26:52.077Z,1.60
2022-12-03T14:29:18.845Z,1.60
2022-12-03T14:31:45.672Z,1.60
2022-12-03T14:34:12.457Z,1.60
2022-12-03T14:36:39.562Z,1.60
2022-12-03T14:39:06.264Z,1.60
2022-12-03T14:41:51.485Z,1.50
2022-12-03T14:44:18.260Z,1.50
2022-12-03T14:46:44.953Z,1.60
2022-12-03T14:49:11.664Z,1.60
2022-12-03T14:51:38.400Z,1.70
2022-12-03T14:54:05.178Z,1.70
2022-12-03T14:56:31.999Z,1.80
2022-12-03T14:58:58.773Z,1.70
2022-12-03T15:01:25.612Z,1.70
2022-12-03T15:03:52.392Z,1.70
2022-12-03T15:06:19.142Z,1.70
2022-12-03T15:08:45.850Z,1.80
2022-12-03T15:11:12.573Z,1.80
2022-12-03T15:13:39.396Z,1.70
2022-12-03T15:16:06.350Z,1.60
2022-12-03T15:18:34.556Z,1.70
2022-12-03T15:21:01.650Z,1.60
2022-12-03T15:23:28.421Z,1.70
2022-12-03T15:25:55.254Z,1.70
2022-12-03T15:28:23.163Z,1.70
2022-12-03T15:30:50.779Z,1.80
2022-12-03T15:33:17.600Z,1.90
2022-12-03T15:35:44.427Z,1.90
2022-12-03T15:38:12.134Z,1.90
2022-12-03T15:40:39.323Z,1.90
2022-12-03T15:43:06.886Z,1.80
2022-12-03T15:45:34.040Z,1.80
2022-12-03T15:48:00.998Z,1.70
2022-12-03T15:50:28.168Z,1.70
2022-12-03T15:52:55.179Z,1.70
2022-12-03T15:55:22.244Z,1.60
2022-12-03T15:57:49.461Z,1.60
2022-12-03T16:00:17.292Z,1.50
2022-12-03T16:02:50.830Z,1.50
2022-12-03T16:05:19.542Z,1.50
2022-12-03T16:07:46.405Z,1.60
2022-12-03T16:10:13.335Z,1.60
2022-12-03T16:12:40.087Z,1.70
2022-12-03T16:15:06.947Z,1.60
2022-12-03T16:17:33.889Z,1.70
2022-12-03T16:20:00.701Z,1.70
2022-12-03T16:22:27.387Z,1.80
2022-12-03T16:24:54.308Z,1.70
2022-12-03T16:27:25.504Z,1.60
2022-12-03T16:29:53.180Z,1.50
2022-12-03T16:32:20.435Z,1.50
2022-12-03T16:34:47.205Z,1.40
2022-12-03T16:37:14.081Z,1.40
2022-12-03T16:39:40.858Z,1.50
2022-12-03T16:42:13.581Z,1.50
2022-12-03T16:44:54.896Z,1.60
2022-12-03T16:47:21.968Z,1.70
2022-12-03T16:49:49.188Z,1.70
2022-12-03T16:52:16.158Z,1.60
2022-12-03T16:54:43.041Z,1.50
2022-12-03T16:57:09.854Z,1.50
2022-12-03T16:59:36.604Z,1.50
2022-12-03T17:02:03.725Z,1.50
2022-12-03T17:04:30.655Z,1.50
2022-12-03T17:06:57.370Z,1.50
2022-12-03T17:09:24.204Z,1.40
2022-12-03T17:11:51.772Z,1.40
2022-12-03T17:14:18.824Z,1.40
2022-12-03T17:16:45.524Z,1.40
2022-12-03T17:19:12.242Z,1.40
2022-12-03T17:21:38.947Z,1.50
2022-12-03T17:24:05.845Z,1.50
2022-12-03T17:26:32.605Z,1.40
2022-12-03T17:28:59.270Z,1.40
2022-12-03T17:31:26.082Z,1.60
2022-12-03T17:33:57.331Z,1.50
2022-12-03T17:36:24.741Z,1.50
2022-12-03T17:38:51.773Z,1.50
2022-12-03T17:41:18.602Z,1.50
2022-12-03T17:43:45.430Z,1.40
2022-12-03T17:46:12.261Z,1.40
2022-12-03T17:48:40.644Z,1.30
2022-12-03T17:51:07.584Z,1.40
2022-12-03T17:53:34.371Z,1.40
2022-12-03T17:56:01.033Z,1.30
2022-12-03T17:58:28.626Z,1.30
2022-12-03T18:01:01.810Z,1.30
2022-12-03T18:03:29.455Z,1.30
2022-12-03T18:05:56.384Z,1.30
2022-12-03T18:08:23.285Z,1.30
2022-12-03T18:10:50.476Z,1.30
2022-12-03T18:13:17.421Z,1.20
2022-12-03T18:15:44.229Z,1.30
2022-12-03T18:18:11.116Z,1.20
2022-12-03T18:20:37.984Z,1.30
2022-12-03T18:23:04.916Z,1.20
2022-12-03T18:25:31.898Z,1.30
2022-12-03T18:27:58.595Z,1.30
2022-12-03T18:30:25.473Z,1.30
2022-12-03T18:32:52.226Z,1.30
2022-12-03T18:35:20.045Z,1.30
2022-12-03T18:37:46.886Z,1.40
2022-12-03T18:40:17.633Z,1.40
2022-12-03T18:42:44.431Z,1.40
2022-12-03T18:45:11.633Z,1.40
2022-12-03T18:47:38.430Z,1.40
2022-12-03T18:50:06.096Z,1.40
2022-12-03T18:52:32.968Z,1.50
2022-12-03T18:54:59.740Z,1.60
2022-12-03T18:57:26.529Z,1.60
2022-12-03T18:59:53.505Z,1.60
2022-12-03T19:03:01.851Z,1.60
2022-12-03T19:05:10.520Z,1.60
2022-12-03T19:07:37.490Z,1.60
2022-12-03T19:10:05.029Z,1.50
2022-12-03T19:12:32.322Z,1.50
2022-12-03T19:15:01.632Z,1.50
2022-12-03T19:17:28.430Z,1.50
2022-12-03T19:19:55.608Z,1.50
2022-12-03T19:22:23.157Z,1.60
2022-12-03T19:24:50.126Z,1.60
2022-12-03T19:27:16.934Z,1.50
2022-12-03T19:29:43.726Z,1.40
2022-12-03T19:32:10.427Z,1.50
2022-12-03T19:34:38.163Z,1.50
2022-12-03T19:37:04.968Z,1.40
2022-12-03T19:39:31.925Z,1.50
2022-12-03T19:41:58.760Z,1.40
2022-12-03T19:44:25.421Z,1.40
2022-12-03T19:46:52.862Z,1.40
2022-12-03T19:49:21.323Z,1.50
2022-12-03T19:51:48.108Z,1.50
2022-12-03T19:54:14.810Z,1.40
2022-12-03T19:56:41.525Z,1.40
2022-12-03T19:59:08.696Z,1.30
2022-12-03T20:01:36.113Z,1.30
2022-12-03T20:04:03.500Z,1.40
2022-12-03T20:06:32.392Z,1.40
2022-12-03T20:09:00.139Z,1.50
2022-12-03T20:11:27.900Z,1.60
2022-12-03T20:13:56.440Z,1.50
2022-12-03T20:16:23.965Z,1.50
2022-12-03T20:18:51.050Z,1.50
2022-12-03T20:21:18.952Z,1.50
2022-12-03T20:23:46.020Z,1.40
2022-12-03T20:26:14.396Z,1.40
2022-12-03T20:28:41.553Z,1.30
2022-12-03T20:31:11.846Z,1.40
2022-12-03T20:33:39.308Z,1.30
2022-12-03T20:36:06.579Z,1.40
2022-12-03T20:38:33.442Z,1.40
2022-12-03T20:41:04.391Z,1.40
2022-12-03T20:43:31.207Z,1.40
2022-12-03T20:46:05.444Z,1.30
2022-12-03T20:48:32.140Z,1.40
2022-12-03T20:50:58.719Z,1.40
2022-12-03T20:53:25.838Z,1.40
2022-12-03T20:55:58.980Z,1.40
2022-12-03T20:58:25.923Z,1.40
2022-12-03T21:00:52.804Z,1.40
2022-12-03T21:03:19.568Z,1.40
2022-12-03T21:05:46.231Z,1.40
2022-12-03T21:08:12.958Z,1.50
2022-12-03T21:10:46.073Z,1.50
2022-12-03T21:13:14.070Z,1.50
2022-12-03T21:15:41.490Z,1.50
2022-12-03T21:18:08.927Z,1.50
2022-12-03T21:20:39.289Z,1.50
2022-12-03T21:23:05.900Z,1.60
2022-12-03T21:25:33.755Z,1.60
2022-12-03T21:28:00.377Z,1.60
2022-12-03T21:30:27.163Z,1.60
2022-12-03T21:32:53.895Z,1.50
2022-12-03T21:35:20.580Z,1.50
2022-12-03T21:37:47.315Z,1.50
2022-12-03T21:40:13.968Z,1.50
2022-12-03T21:42:40.569Z,1.60
2022-12-03T21:45:08.078Z,1.70
2022-12-03T21:47:37.168Z,1.70
2022-12-03T21:50:05.537Z,1.60
2022-12-03T21:52:33.193Z,1.60
2022-12-03T21:54:59.848Z,1.60
2022-12-03T21:57:26.598Z,1.60
2022-12-03T21:59:53.683Z,1.60
2022-12-03T22:02:20.625Z,1.70
2022-12-03T22:04:50.423Z,1.70
2022-12-03T22:07:17.168Z,1.70
2022-12-03T22:09:43.809Z,1.70
2022-12-03T22:12:10.461Z,1.60
2022-12-03T22:14:37.446Z,1.60
2022-12-03T22:17:04.165Z,1.70
2022-12-03T22:19:30.863Z,1.70
2022-12-03T22:21:57.535Z,1.70
2022-12-03T22:24:24.297Z,1.80
2022-12-03T22:26:52.288Z,1.70
2022-12-03T22:29:19.000Z,1.70
2022-12-03T22:31:45.799Z,1.70
2022-12-03T22:34:12.612Z,1.70
2022-12-03T22:36:39.406Z,1.70
2022-12-03T22:39:06.167Z,1.70
2022-12-03T22:41:32.807Z,1.80
2022-12-03T22:43:59.435Z,1.90
2022-12-03T22:46:26.174Z,1.80
2022-12-03T22:48:52.981Z,1.80
2022-12-03T22:51:21.072Z,1.80
2022-12-03T22:53:47.841Z,1.80
2022-12-03T22:56:14.648Z,1.70
2022-12-03T22:58:41.372Z,1.70
2022-12-03T23:01:08.411Z,1.70
2022-12-03T23:03:37.971Z,1.80
2022-12-03T23:06:11.271Z,1.80
2022-12-03T23:08:38.066Z,1.60
2022-12-03T23:11:05.132Z,1.60
2022-12-03T23:13:31.788Z,1.60
2022-12-03T23:15:58.502Z,1.50
2022-12-03T23:18:25.190Z,1.60
2022-12-03T23:20:53.000Z,1.60
2022-12-03T23:23:20.358Z,1.70
2022-12-03T23:26:06.672Z,1.60
2022-12-03T23:28:34.864Z,1.70
2022-12-03T23:31:01.964Z,1.70
2022-12-03T23:33:28.873Z,1.70
2022-12-03T23:35:55.540Z,1.70
2022-12-03T23:38:22.351Z,1.80
2022-12-03T23:40:49.416Z,1.70
2022-12-03T23:43:16.237Z,1.70
2022-12-03T23:45:42.886Z,1.70
2022-12-03T23:48:09.563Z,1.60
2022-12-03T23:50:38.892Z,1.50
2022-12-03T23:53:05.546Z,1.50
2022-12-03T23:55:32.209Z,1.50
2022-12-03T23:57:58.934Z,1.50
